sensor_id;sensor_type;location;lat;lon;timestamp;pressure;altitude;pressure_sealevel;temperature;humidity
60061;BME280;45933;51.336;12.612;2023-05-23T00:01:28;99440.25;;;20.95;49.28
60061;BME280;45933;51.336;12.612;2023-05-23T00:03:56;99438.03;;;20.87;49.80
60061;BME280;45933;51.336;12.612;2023-05-23T00:06:21;99440.69;;;20.87;50.04
60061;BME280;45933;51.336;12.612;2023-05-23T00:08:46;99438.31;;;20.82;50.26
60061;BME280;45933;51.336;12.612;2023-05-23T00:11:12;99438.66;;;20.76;50.03
60061;BME280;45933;51.336;12.612;2023-05-23T00:13:37;99443.31;;;20.73;50.24
60061;BME280;45933;51.336;12.612;2023-05-23T00:16:04;99432.78;;;20.71;50.79
60061;BME280;45933;51.336;12.612;2023-05-23T00:18:34;99428.53;;;20.69;51.32
60061;BME280;45933;51.336;12.612;2023-05-23T00:20:59;99436.56;;;20.67;50.89
60061;BME280;45933;51.336;12.612;2023-05-23T00:23:26;99438.44;;;20.65;51.51
60061;BME280;45933;51.336;12.612;2023-05-23T00:25:54;99441.94;;;20.66;51.83
60061;BME280;45933;51.336;12.612;2023-05-23T00:28:20;99432.38;;;20.63;51.90
60061;BME280;45933;51.336;12.612;2023-05-23T00:30:45;99426.25;;;20.62;52.10
60061;BME280;45933;51.336;12.612;2023-05-23T00:33:11;99431.44;;;20.64;52.24
60061;BME280;45933;51.336;12.612;2023-05-23T00:35:38;99427.09;;;20.63;52.53
60061;BME280;45933;51.336;12.612;2023-05-23T00:38:04;99429.16;;;20.58;53.42
60061;BME280;45933;51.336;12.612;2023-05-23T00:40:31;99424.59;;;20.60;53.08
60061;BME280;45933;51.336;12.612;2023-05-23T00:42:57;99417.44;;;20.62;52.81
60061;BME280;45933;51.336;12.612;2023-05-23T00:45:22;99412.81;;;20.66;52.44
60061;BME280;45933;51.336;12.612;2023-05-23T00:47:48;99414.69;;;20.63;53.04
60061;BME280;45933;51.336;12.612;2023-05-23T00:50:14;99419.41;;;20.58;53.33
60061;BME280;45933;51.336;12.612;2023-05-23T00:52:41;99416.06;;;20.55;53.86
60061;BME280;45933;51.336;12.612;2023-05-23T00:55:07;99420.88;;;20.48;54.19
60061;BME280;45933;51.336;12.612;2023-05-23T00:57:32;99415.09;;;20.40;54.58
60061;BME280;45933;51.336;12.612;2023-05-23T00:59:59;99419.56;;;20.40;55.05
60061;BME280;45933;51.336;12.612;2023-05-23T01:02:25;99423.03;;;20.40;54.08
60061;BME280;45933;51.336;12.612;2023-05-23T01:04:52;99435.63;;;20.36;55.00
60061;BME280;45933;51.336;12.612;2023-05-23T01:07:19;99428.69;;;20.34;54.93
60061;BME280;45933;51.336;12.612;2023-05-23T01:09:45;99434.16;;;20.31;55.21
60061;BME280;45933;51.336;12.612;2023-05-23T01:12:24;99432.19;;;20.34;54.48
60061;BME280;45933;51.336;12.612;2023-05-23T01:15:09;99416.25;;;20.36;54.49
60061;BME280;45933;51.336;12.612;2023-05-23T01:18:07;99423.25;;;20.37;54.33
60061;BME280;45933;51.336;12.612;2023-05-23T01:20:37;99429.72;;;20.31;54.91
60061;BME280;45933;51.336;12.612;2023-05-23T01:23:24;99427.84;;;20.33;54.68
60061;BME280;45933;51.336;12.612;2023-05-23T01:28:27;99413.91;;;20.30;55.79
60061;BME280;45933;51.336;12.612;2023-05-23T01:30:57;99418.34;;;20.29;55.97
60061;BME280;45933;51.336;12.612;2023-05-23T01:33:24;99422.81;;;20.29;56.01
60061;BME280;45933;51.336;12.612;2023-05-23T01:35:49;99426.41;;;20.28;55.72
60061;BME280;45933;51.336;12.612;2023-05-23T01:38:15;99421.94;;;20.28;55.92
60061;BME280;45933;51.336;12.612;2023-05-23T01:40:40;99416.66;;;20.28;56.23
60061;BME280;45933;51.336;12.612;2023-05-23T01:43:06;99413.25;;;20.26;56.29
60061;BME280;45933;51.336;12.612;2023-05-23T01:45:31;99412.81;;;20.18;57.02
60061;BME280;45933;51.336;12.612;2023-05-23T01:47:57;99408.91;;;20.09;57.46
60061;BME280;45933;51.336;12.612;2023-05-23T01:50:23;99397.53;;;20.07;57.56
60061;BME280;45933;51.336;12.612;2023-05-23T01:52:50;99399.53;;;20.04;57.47
60061;BME280;45933;51.336;12.612;2023-05-23T01:55:16;99400.44;;;20.03;57.34
60061;BME280;45933;51.336;12.612;2023-05-23T01:57:49;99409.31;;;20.02;57.52
60061;BME280;45933;51.336;12.612;2023-05-23T02:00:14;99420.94;;;19.99;57.51
60061;BME280;45933;51.336;12.612;2023-05-23T02:02:40;99424.59;;;19.97;57.73
60061;BME280;45933;51.336;12.612;2023-05-23T02:05:06;99436.09;;;19.96;57.76
60061;BME280;45933;51.336;12.612;2023-05-23T02:07:31;99432.50;;;19.97;57.56
60061;BME280;45933;51.336;12.612;2023-05-23T02:09:56;99431.84;;;19.93;57.97
60061;BME280;45933;51.336;12.612;2023-05-23T02:12:22;99429.13;;;19.95;57.89
60061;BME280;45933;51.336;12.612;2023-05-23T02:14:48;99438.84;;;19.94;57.98
60061;BME280;45933;51.336;12.612;2023-05-23T02:17:13;99439.84;;;19.92;57.73
60061;BME280;45933;51.336;12.612;2023-05-23T02:19:40;99424.22;;;19.87;57.18
60061;BME280;45933;51.336;12.612;2023-05-23T02:22:06;99419.19;;;19.82;57.52
60061;BME280;45933;51.336;12.612;2023-05-23T02:24:31;99411.34;;;19.81;56.70
60061;BME280;45933;51.336;12.612;2023-05-23T02:26:56;99422.94;;;19.78;57.08
60061;BME280;45933;51.336;12.612;2023-05-23T02:29:21;99418.66;;;19.76;56.57
60061;BME280;45933;51.336;12.612;2023-05-23T02:31:46;99415.41;;;19.71;56.58
60061;BME280;45933;51.336;12.612;2023-05-23T02:34:12;99417.19;;;19.70;56.62
60061;BME280;45933;51.336;12.612;2023-05-23T02:36:37;99421.78;;;19.67;56.38
60061;BME280;45933;51.336;12.612;2023-05-23T02:39:03;99421.13;;;19.63;56.41
60061;BME280;45933;51.336;12.612;2023-05-23T02:41:28;99416.84;;;19.61;56.42
60061;BME280;45933;51.336;12.612;2023-05-23T02:43:54;99422.22;;;19.59;56.80
60061;BME280;45933;51.336;12.612;2023-05-23T02:46:19;99422.28;;;19.57;56.66
60061;BME280;45933;51.336;12.612;2023-05-23T02:48:45;99416.19;;;19.55;56.75
60061;BME280;45933;51.336;12.612;2023-05-23T02:51:10;99422.50;;;19.53;56.46
60061;BME280;45933;51.336;12.612;2023-05-23T02:53:37;99417.56;;;19.47;57.25
60061;BME280;45933;51.336;12.612;2023-05-23T02:56:02;99437.00;;;19.46;57.34
60061;BME280;45933;51.336;12.612;2023-05-23T02:58:28;99433.56;;;19.44;57.27
60061;BME280;45933;51.336;12.612;2023-05-23T03:00:53;99432.84;;;19.40;57.54
60061;BME280;45933;51.336;12.612;2023-05-23T03:03:19;99434.59;;;19.41;57.47
60061;BME280;45933;51.336;12.612;2023-05-23T03:05:44;99433.78;;;19.39;57.79
60061;BME280;45933;51.336;12.612;2023-05-23T03:08:10;99425.88;;;19.39;57.98
60061;BME280;45933;51.336;12.612;2023-05-23T03:10:36;99429.34;;;19.40;57.93
60061;BME280;45933;51.336;12.612;2023-05-23T03:13:01;99421.53;;;19.38;58.25
60061;BME280;45933;51.336;12.612;2023-05-23T03:15:26;99432.09;;;19.38;57.86
60061;BME280;45933;51.336;12.612;2023-05-23T03:17:52;99424.16;;;19.38;58.32
60061;BME280;45933;51.336;12.612;2023-05-23T03:20:17;99426.03;;;19.36;58.52
60061;BME280;45933;51.336;12.612;2023-05-23T03:22:42;99428.81;;;19.33;58.38
60061;BME280;45933;51.336;12.612;2023-05-23T03:25:09;99428.81;;;19.33;59.05
60061;BME280;45933;51.336;12.612;2023-05-23T03:27:34;99429.84;;;19.30;59.18
60061;BME280;45933;51.336;12.612;2023-05-23T03:30:02;99427.22;;;19.30;59.79
60061;BME280;45933;51.336;12.612;2023-05-23T03:32:27;99425.47;;;19.29;59.65
60061;BME280;45933;51.336;12.612;2023-05-23T03:34:52;99430.75;;;19.29;59.52
60061;BME280;45933;51.336;12.612;2023-05-23T03:37:17;99435.16;;;19.30;59.65
60061;BME280;45933;51.336;12.612;2023-05-23T03:39:43;99431.56;;;19.31;60.19
60061;BME280;45933;51.336;12.612;2023-05-23T03:42:08;99429.69;;;19.33;59.86
60061;BME280;45933;51.336;12.612;2023-05-23T03:44:33;99438.63;;;19.31;60.46
60061;BME280;45933;51.336;12.612;2023-05-23T03:46:58;99437.53;;;19.35;60.24
60061;BME280;45933;51.336;12.612;2023-05-23T03:49:24;99447.19;;;19.36;60.61
60061;BME280;45933;51.336;12.612;2023-05-23T03:51:49;99454.16;;;19.37;61.05
60061;BME280;45933;51.336;12.612;2023-05-23T03:54:15;99458.50;;;19.38;60.84
60061;BME280;45933;51.336;12.612;2023-05-23T03:56:42;99460.31;;;19.38;60.89
60061;BME280;45933;51.336;12.612;2023-05-23T03:59:07;99460.22;;;19.39;60.76
60061;BME280;45933;51.336;12.612;2023-05-23T04:01:32;99467.06;;;19.43;60.65
60061;BME280;45933;51.336;12.612;2023-05-23T04:03:58;99473.19;;;19.44;60.58
60061;BME280;45933;51.336;12.612;2023-05-23T04:06:24;99465.28;;;19.44;60.95
60061;BME280;45933;51.336;12.612;2023-05-23T04:08:50;99471.19;;;19.49;60.71
60061;BME280;45933;51.336;12.612;2023-05-23T04:11:15;99471.09;;;19.50;60.77
60061;BME280;45933;51.336;12.612;2023-05-23T04:13:40;99477.00;;;19.55;60.68
60061;BME280;45933;51.336;12.612;2023-05-23T04:16:06;99476.84;;;19.58;60.83
60061;BME280;45933;51.336;12.612;2023-05-23T04:18:32;99475.69;;;19.64;60.46
60061;BME280;45933;51.336;12.612;2023-05-23T04:21:03;99479.97;;;19.67;60.37
60061;BME280;45933;51.336;12.612;2023-05-23T04:23:28;99485.09;;;19.70;60.21
60061;BME280;45933;51.336;12.612;2023-05-23T04:25:53;99478.88;;;19.71;60.45
60061;BME280;45933;51.336;12.612;2023-05-23T04:28:19;99483.31;;;19.70;60.54
60061;BME280;45933;51.336;12.612;2023-05-23T04:30:44;99483.22;;;19.72;59.99
60061;BME280;45933;51.336;12.612;2023-05-23T04:33:09;99485.19;;;19.68;60.77
60061;BME280;45933;51.336;12.612;2023-05-23T04:35:35;99485.09;;;19.70;60.46
60061;BME280;45933;51.336;12.612;2023-05-23T04:38:03;99490.38;;;19.70;60.59
60061;BME280;45933;51.336;12.612;2023-05-23T04:40:28;99493.78;;;19.72;60.20
60061;BME280;45933;51.336;12.612;2023-05-23T04:42:54;99491.00;;;19.75;60.20
60061;BME280;45933;51.336;12.612;2023-05-23T04:45:20;99498.78;;;19.78;60.25
60061;BME280;45933;51.336;12.612;2023-05-23T04:47:46;99494.25;;;19.80;60.41
60061;BME280;45933;51.336;12.612;2023-05-23T04:50:11;99499.41;;;19.83;60.11
60061;BME280;45933;51.336;12.612;2023-05-23T04:52:39;99500.31;;;19.82;60.33
60061;BME280;45933;51.336;12.612;2023-05-23T04:55:04;99499.22;;;19.86;59.95
60061;BME280;45933;51.336;12.612;2023-05-23T04:57:30;99496.66;;;19.84;60.31
60061;BME280;45933;51.336;12.612;2023-05-23T04:59:55;99501.72;;;19.89;60.14
60061;BME280;45933;51.336;12.612;2023-05-23T05:02:21;99511.34;;;19.90;60.43
60061;BME280;45933;51.336;12.612;2023-05-23T05:04:46;99505.13;;;19.91;60.19
60061;BME280;45933;51.336;12.612;2023-05-23T05:07:12;99512.06;;;19.94;60.41
60061;BME280;45933;51.336;12.612;2023-05-23T05:09:37;99502.22;;;19.96;60.13
60061;BME280;45933;51.336;12.612;2023-05-23T05:12:02;99501.13;;;20.00;60.40
60061;BME280;45933;51.336;12.612;2023-05-23T05:14:27;99508.13;;;20.01;60.57
60061;BME280;45933;51.336;12.612;2023-05-23T05:16:53;99503.53;;;20.04;60.22
60061;BME280;45933;51.336;12.612;2023-05-23T05:19:22;99505.16;;;20.07;60.54
60061;BME280;45933;51.336;12.612;2023-05-23T05:21:47;99518.06;;;20.13;60.36
60061;BME280;45933;51.336;12.612;2023-05-23T05:24:13;99510.91;;;20.15;59.93
60061;BME280;45933;51.336;12.612;2023-05-23T05:26:39;99520.44;;;20.18;59.92
60061;BME280;45933;51.336;12.612;2023-05-23T05:29:05;99508.88;;;20.20;60.10
60061;BME280;45933;51.336;12.612;2023-05-23T05:31:30;99510.56;;;20.21;60.13
60061;BME280;45933;51.336;12.612;2023-05-23T05:33:56;99507.91;;;20.21;59.64
60061;BME280;45933;51.336;12.612;2023-05-23T05:36:22;99515.78;;;20.23;59.76
60061;BME280;45933;51.336;12.612;2023-05-23T05:38:47;99519.09;;;20.26;59.85
60061;BME280;45933;51.336;12.612;2023-05-23T05:41:12;99530.47;;;20.28;59.79
60061;BME280;45933;51.336;12.612;2023-05-23T05:43:38;99520.47;;;20.33;59.50
60061;BME280;45933;51.336;12.612;2023-05-23T05:46:03;99517.81;;;20.33;59.80
60061;BME280;45933;51.336;12.612;2023-05-23T05:48:29;99525.78;;;20.33;59.62
60061;BME280;45933;51.336;12.612;2023-05-23T05:50:54;99522.88;;;20.38;59.31
60061;BME280;45933;51.336;12.612;2023-05-23T05:53:19;99519.97;;;20.43;59.32
60061;BME280;45933;51.336;12.612;2023-05-23T05:55:44;99524.22;;;20.45;59.21
60061;BME280;45933;51.336;12.612;2023-05-23T05:58:10;99527.72;;;20.46;59.21
60061;BME280;45933;51.336;12.612;2023-05-23T06:00:35;99533.13;;;20.44;58.29
60061;BME280;45933;51.336;12.612;2023-05-23T06:03:09;99542.00;;;20.43;58.51
60061;BME280;45933;51.336;12.612;2023-05-23T06:05:35;99546.16;;;20.49;58.92
60061;BME280;45933;51.336;12.612;2023-05-23T06:08:02;99538.28;;;20.47;58.53
60061;BME280;45933;51.336;12.612;2023-05-23T06:10:27;99537.44;;;20.47;58.17
60061;BME280;45933;51.336;12.612;2023-05-23T06:12:53;99537.44;;;20.47;58.39
60061;BME280;45933;51.336;12.612;2023-05-23T06:15:18;99542.66;;;20.48;58.39
60061;BME280;45933;51.336;12.612;2023-05-23T06:17:44;99539.91;;;20.50;57.94
60061;BME280;45933;51.336;12.612;2023-05-23T06:20:10;99540.94;;;20.47;58.42
60061;BME280;45933;51.336;12.612;2023-05-23T06:22:35;99543.50;;;20.49;58.30
60061;BME280;45933;51.336;12.612;2023-05-23T06:25:01;99547.84;;;20.50;58.56
60061;BME280;45933;51.336;12.612;2023-05-23T06:27:26;99543.34;;;20.52;58.24
60061;BME280;45933;51.336;12.612;2023-05-23T06:29:52;99539.91;;;20.50;58.29
60061;BME280;45933;51.336;12.612;2023-05-23T06:32:17;99544.44;;;20.48;57.93
60061;BME280;45933;51.336;12.612;2023-05-23T06:34:42;99546.25;;;20.47;58.16
60061;BME280;45933;51.336;12.612;2023-05-23T06:37:07;99555.16;;;20.45;58.18
60061;BME280;45933;51.336;12.612;2023-05-23T06:39:33;99553.63;;;20.41;58.36
60061;BME280;45933;51.336;12.612;2023-05-23T06:41:58;99558.13;;;20.38;58.28
60061;BME280;45933;51.336;12.612;2023-05-23T06:44:23;99549.34;;;20.38;58.27
60061;BME280;45933;51.336;12.612;2023-05-23T06:46:49;99552.75;;;20.40;57.95
60061;BME280;45933;51.336;12.612;2023-05-23T06:49:14;99556.34;;;20.39;57.72
60061;BME280;45933;51.336;12.612;2023-05-23T06:51:39;99553.69;;;20.39;57.87
60061;BME280;45933;51.336;12.612;2023-05-23T06:54:05;99550.09;;;20.40;58.02
60061;BME280;45933;51.336;12.612;2023-05-23T06:56:30;99563.34;;;20.40;58.08
60061;BME280;45933;51.336;12.612;2023-05-23T06:58:56;99559.84;;;20.40;58.23
60061;BME280;45933;51.336;12.612;2023-05-23T07:01:21;99564.13;;;20.42;58.19
60061;BME280;45933;51.336;12.612;2023-05-23T07:03:46;99562.44;;;20.41;58.29
60061;BME280;45933;51.336;12.612;2023-05-23T07:06:12;99575.91;;;20.36;58.08
60061;BME280;45933;51.336;12.612;2023-05-23T07:08:37;99589.63;;;20.27;56.25
60061;BME280;45933;51.336;12.612;2023-05-23T07:11:03;99574.22;;;20.18;55.06
60061;BME280;45933;51.336;12.612;2023-05-23T07:13:28;99595.72;;;20.12;54.85
60061;BME280;45933;51.336;12.612;2023-05-23T07:15:54;99588.59;;;19.97;53.86
60061;BME280;45933;51.336;12.612;2023-05-23T07:18:20;99585.56;;;19.87;53.71
60061;BME280;45933;51.336;12.612;2023-05-23T07:20:45;99589.22;;;19.84;53.70
60061;BME280;45933;51.336;12.612;2023-05-23T07:23:10;99583.31;;;19.79;53.68
60061;BME280;45933;51.336;12.612;2023-05-23T07:25:36;99589.69;;;19.75;53.96
60061;BME280;45933;51.336;12.612;2023-05-23T07:28:01;99586.44;;;19.70;54.04
60061;BME280;45933;51.336;12.612;2023-05-23T07:30:26;99593.50;;;19.70;53.89
60061;BME280;45933;51.336;12.612;2023-05-23T07:32:51;99592.03;;;19.64;53.59
60061;BME280;45933;51.336;12.612;2023-05-23T07:35:18;99591.09;;;19.65;54.01
60061;BME280;45933;51.336;12.612;2023-05-23T07:37:47;99592.97;;;19.63;54.23
60061;BME280;45933;51.336;12.612;2023-05-23T07:40:13;99594.69;;;19.64;54.39
60061;BME280;45933;51.336;12.612;2023-05-23T07:42:38;99598.03;;;19.68;54.66
60061;BME280;45933;51.336;12.612;2023-05-23T07:45:04;99601.59;;;19.67;54.38
60061;BME280;45933;51.336;12.612;2023-05-23T07:47:29;99602.59;;;19.64;54.10
60061;BME280;45933;51.336;12.612;2023-05-23T07:49:55;99601.66;;;19.65;54.26
60061;BME280;45933;51.336;12.612;2023-05-23T07:52:20;99603.31;;;19.68;54.53
60061;BME280;45933;51.336;12.612;2023-05-23T07:54:46;99601.53;;;19.68;54.25
60061;BME280;45933;51.336;12.612;2023-05-23T07:57:11;99604.09;;;19.70;54.16
60061;BME280;45933;51.336;12.612;2023-05-23T07:59:36;99603.84;;;19.74;54.12
60061;BME280;45933;51.336;12.612;2023-05-23T08:02:02;99606.50;;;19.74;54.09
60061;BME280;45933;51.336;12.612;2023-05-23T08:04:28;99611.94;;;19.71;53.53
60061;BME280;45933;51.336;12.612;2023-05-23T08:06:53;99618.88;;;19.74;53.11
60061;BME280;45933;51.336;12.612;2023-05-23T08:09:20;99618.88;;;19.74;53.03
60061;BME280;45933;51.336;12.612;2023-05-23T08:11:45;99618.88;;;19.74;52.85
60061;BME280;45933;51.336;12.612;2023-05-23T08:14:10;99626.09;;;19.70;52.85
60061;BME280;45933;51.336;12.612;2023-05-23T08:16:35;99632.22;;;19.71;52.67
60061;BME280;45933;51.336;12.612;2023-05-23T08:19:01;99618.34;;;19.67;52.73
60061;BME280;45933;51.336;12.612;2023-05-23T08:21:27;99623.75;;;19.64;52.89
60061;BME280;45933;51.336;12.612;2023-05-23T08:23:52;99625.31;;;19.68;53.14
60061;BME280;45933;51.336;12.612;2023-05-23T08:26:17;99623.44;;;19.70;53.30
60061;BME280;45933;51.336;12.612;2023-05-23T08:28:43;99621.59;;;19.72;53.05
60061;BME280;45933;51.336;12.612;2023-05-23T08:31:08;99622.44;;;19.73;52.97
60061;BME280;45933;51.336;12.612;2023-05-23T08:33:33;99622.13;;;19.79;53.44
60061;BME280;45933;51.336;12.612;2023-05-23T08:35:58;99627.25;;;19.82;53.52
60061;BME280;45933;51.336;12.612;2023-05-23T08:38:24;99629.66;;;19.87;53.72
60061;BME280;45933;51.336;12.612;2023-05-23T08:40:51;99633.88;;;19.91;53.34
60061;BME280;45933;51.336;12.612;2023-05-23T08:43:17;99639.25;;;19.89;52.85
60061;BME280;45933;51.336;12.612;2023-05-23T08:45:43;99635.34;;;19.96;52.90
60061;BME280;45933;51.336;12.612;2023-05-23T08:48:11;99639.03;;;19.94;52.97
60061;BME280;45933;51.336;12.612;2023-05-23T08:50:38;99641.50;;;19.97;52.91
60061;BME280;45933;51.336;12.612;2023-05-23T08:53:04;99638.69;;;20.00;53.02
60061;BME280;45933;51.336;12.612;2023-05-23T08:55:32;99638.53;;;20.03;52.80
60061;BME280;45933;51.336;12.612;2023-05-23T08:57:58;99647.94;;;20.08;52.94
60061;BME280;45933;51.336;12.612;2023-05-23T09:00:25;99648.56;;;20.14;52.96
60061;BME280;45933;51.336;12.612;2023-05-23T09:02:50;99644.81;;;20.18;53.16
60061;BME280;45933;51.336;12.612;2023-05-23T09:05:16;99648.25;;;20.20;52.79
60061;BME280;45933;51.336;12.612;2023-05-23T09:07:43;99655.16;;;20.22;52.28
60061;BME280;45933;51.336;12.612;2023-05-23T09:10:12;99652.38;;;20.25;52.32
60061;BME280;45933;51.336;12.612;2023-05-23T09:12:38;99654.16;;;20.25;52.49
60061;BME280;45933;51.336;12.612;2023-05-23T09:15:05;99661.84;;;20.29;52.66
60061;BME280;45933;51.336;12.612;2023-05-23T09:17:32;99652.19;;;20.28;52.73
60061;BME280;45933;51.336;12.612;2023-05-23T09:19:58;99659.06;;;20.32;52.56
60061;BME280;45933;51.336;12.612;2023-05-23T09:22:24;99668.94;;;20.29;52.42
60061;BME280;45933;51.336;12.612;2023-05-23T09:24:55;99665.97;;;20.35;51.99
60061;BME280;45933;51.336;12.612;2023-05-23T09:27:21;99662.56;;;20.33;52.36
60061;BME280;45933;51.336;12.612;2023-05-23T09:29:48;99669.50;;;20.35;52.07
60061;BME280;45933;51.336;12.612;2023-05-23T09:32:15;99666.84;;;20.35;52.33
60061;BME280;45933;51.336;12.612;2023-05-23T09:34:58;99660.09;;;20.46;51.79
60061;BME280;45933;51.336;12.612;2023-05-23T09:37:34;99660.75;;;20.51;51.90
60061;BME280;45933;51.336;12.612;2023-05-23T09:40:05;99663.34;;;20.52;51.57
60061;BME280;45933;51.336;12.612;2023-05-23T09:42:32;99649.59;;;20.61;51.58
60061;BME280;45933;51.336;12.612;2023-05-23T09:45:00;99662.56;;;20.66;51.38
60061;BME280;45933;51.336;12.612;2023-05-23T09:47:26;99664.97;;;20.71;51.31
60061;BME280;45933;51.336;12.612;2023-05-23T09:49:51;99657.97;;;20.70;50.58
60061;BME280;45933;51.336;12.612;2023-05-23T09:52:17;99662.28;;;20.72;50.63
60061;BME280;45933;51.336;12.612;2023-05-23T09:54:44;99657.28;;;20.66;50.52
60061;BME280;45933;51.336;12.612;2023-05-23T09:57:11;99667.81;;;20.68;50.71
60061;BME280;45933;51.336;12.612;2023-05-23T09:59:39;99660.88;;;20.65;50.85
60061;BME280;45933;51.336;12.612;2023-05-23T10:02:11;99660.63;;;20.70;50.93
60061;BME280;45933;51.336;12.612;2023-05-23T10:04:38;99656.28;;;20.69;51.12
60061;BME280;45933;51.336;12.612;2023-05-23T10:07:18;99658.34;;;20.79;51.40
60061;BME280;45933;51.336;12.612;2023-05-23T10:09:47;99658.50;;;20.76;51.45
60061;BME280;45933;51.336;12.612;2023-05-23T10:12:38;99655.97;;;20.91;50.78
60061;BME280;45933;51.336;12.612;2023-05-23T10:15:06;99663.56;;;20.81;50.66
60061;BME280;45933;51.336;12.612;2023-05-23T10:17:45;99663.31;;;20.85;50.39
60061;BME280;45933;51.336;12.612;2023-05-23T10:20:16;99664.25;;;20.84;50.17
60061;BME280;45933;51.336;12.612;2023-05-23T10:22:44;99664.16;;;20.86;50.13
60061;BME280;45933;51.336;12.612;2023-05-23T10:25:10;99668.94;;;20.79;49.96
60061;BME280;45933;51.336;12.612;2023-05-23T10:27:39;99661.16;;;20.76;50.67
60061;BME280;45933;51.336;12.612;2023-05-23T10:30:07;99663.53;;;20.65;51.16
60061;BME280;45933;51.336;12.612;2023-05-23T10:32:33;99665.56;;;20.60;51.83
60061;BME280;45933;51.336;12.612;2023-05-23T10:35:16;99668.69;;;20.51;51.90
60061;BME280;45933;51.336;12.612;2023-05-23T10:38:12;99669.72;;;20.48;51.46
60061;BME280;45933;51.336;12.612;2023-05-23T10:43:26;99675.06;;;20.29;52.21
60061;BME280;45933;51.336;12.612;2023-05-23T10:45:53;99673.16;;;20.16;52.42
60061;BME280;45933;51.336;12.612;2023-05-23T10:48:32;99672.09;;;20.20;52.31
60061;BME280;45933;51.336;12.612;2023-05-23T10:53:30;99675.56;;;20.03;52.73
60061;BME280;45933;51.336;12.612;2023-05-23T10:55:55;99669.03;;;19.93;52.38
60061;BME280;45933;51.336;12.612;2023-05-23T10:58:21;99678.63;;;19.95;52.66
60061;BME280;45933;51.336;12.612;2023-05-23T11:00:59;99676.69;;;19.99;52.34
60061;BME280;45933;51.336;12.612;2023-05-23T11:03:48;99682.97;;;19.96;52.89
60061;BME280;45933;51.336;12.612;2023-05-23T11:06:41;99684.63;;;19.99;52.73
60061;BME280;45933;51.336;12.612;2023-05-23T11:09:11;99689.88;;;19.81;54.09
60061;BME280;45933;51.336;12.612;2023-05-23T11:14:20;99694.47;;;19.78;55.29
60061;BME280;45933;51.336;12.612;2023-05-23T11:16:55;99691.22;;;19.73;55.37
60061;BME280;45933;51.336;12.612;2023-05-23T11:19:22;99693.00;;;19.72;56.01
60061;BME280;45933;51.336;12.612;2023-05-23T11:21:53;99695.69;;;19.71;56.17
60061;BME280;45933;51.336;12.612;2023-05-23T11:24:19;99698.50;;;19.68;56.60
60061;BME280;45933;51.336;12.612;2023-05-23T11:26:57;99695.78;;;19.69;56.41
60061;BME280;45933;51.336;12.612;2023-05-23T11:29:28;99700.34;;;19.66;57.55
60061;BME280;45933;51.336;12.612;2023-05-23T11:31:57;99700.44;;;19.64;57.11
60061;BME280;45933;51.336;12.612;2023-05-23T11:34:24;99702.31;;;19.62;56.37
60061;BME280;45933;51.336;12.612;2023-05-23T11:36:54;99696.94;;;19.64;55.43
60061;BME280;45933;51.336;12.612;2023-05-23T11:39:20;99692.59;;;19.63;55.51
60061;BME280;45933;51.336;12.612;2023-05-23T11:42:01;99687.94;;;19.68;55.50
60061;BME280;45933;51.336;12.612;2023-05-23T11:44:27;99689.56;;;19.70;55.10
60061;BME280;45933;51.336;12.612;2023-05-23T11:47:19;99689.88;;;19.81;54.97
60061;BME280;45933;51.336;12.612;2023-05-23T11:49:45;99697.03;;;19.79;55.71
60061;BME280;45933;51.336;12.612;2023-05-23T11:52:11;99690.03;;;19.78;53.92
60061;BME280;45933;51.336;12.612;2023-05-23T11:54:39;99696.09;;;19.80;53.75
60061;BME280;45933;51.336;12.612;2023-05-23T11:57:05;99706.59;;;19.82;54.12
60061;BME280;45933;51.336;12.612;2023-05-23T11:59:30;99716.50;;;19.78;53.75
60061;BME280;45933;51.336;12.612;2023-05-23T12:01:55;99721.19;;;19.72;53.81
60061;BME280;45933;51.336;12.612;2023-05-23T12:04:21;99724.31;;;19.63;54.25
60061;BME280;45933;51.336;12.612;2023-05-23T12:06:47;99718.09;;;19.64;54.16
60061;BME280;45933;51.336;12.612;2023-05-23T12:09:13;99724.84;;;19.50;54.54
60061;BME280;45933;51.336;12.612;2023-05-23T12:11:39;99722.28;;;19.49;54.37
60061;BME280;45933;51.336;12.612;2023-05-23T12:14:05;99725.78;;;19.49;54.33
60061;BME280;45933;51.336;12.612;2023-05-23T12:16:31;99726.94;;;19.44;54.74
60061;BME280;45933;51.336;12.612;2023-05-23T12:18:58;99729.56;;;19.44;54.68
60061;BME280;45933;51.336;12.612;2023-05-23T12:21:42;99727.56;;;19.49;54.35
60061;BME280;45933;51.336;12.612;2023-05-23T12:24:13;99733.28;;;19.40;54.87
60061;BME280;45933;51.336;12.612;2023-05-23T12:29:17;99740.09;;;19.26;55.53
60061;BME280;45933;51.336;12.612;2023-05-23T12:31:43;99757.09;;;19.21;56.26
60061;BME280;45933;51.336;12.612;2023-05-23T12:34:10;99745.88;;;19.16;56.61
60061;BME280;45933;51.336;12.612;2023-05-23T12:36:35;99751.28;;;19.13;56.74
60061;BME280;45933;51.336;12.612;2023-05-23T12:39:04;99749.94;;;19.04;57.26
60061;BME280;45933;51.336;12.612;2023-05-23T12:41:31;99756.22;;;19.01;57.50
60061;BME280;45933;51.336;12.612;2023-05-23T12:43:57;99753.56;;;19.01;57.11
60061;BME280;45933;51.336;12.612;2023-05-23T12:46:24;99760.00;;;18.96;56.43
60061;BME280;45933;51.336;12.612;2023-05-23T12:48:50;99757.63;;;18.90;56.01
60061;BME280;45933;51.336;12.612;2023-05-23T12:51:16;99755.91;;;18.89;56.18
60061;BME280;45933;51.336;12.612;2023-05-23T12:53:42;99761.41;;;18.84;55.82
60061;BME280;45933;51.336;12.612;2023-05-23T12:56:07;99759.50;;;18.88;55.72
60061;BME280;45933;51.336;12.612;2023-05-23T12:58:32;99760.41;;;18.87;55.93
60061;BME280;45933;51.336;12.612;2023-05-23T13:01:00;99757.72;;;18.88;55.73
60061;BME280;45933;51.336;12.612;2023-05-23T13:03:25;99752.47;;;18.87;55.40